Time;durP1;ratioP1;P1;durP2;ratioP2;P2;SDS_P1;SDS_P2;PMS_P1;PMS_P2;Temp;Humidity;BMP_temperature;BMP_pressure;BME280_temperature;BME280_humidity;BME280_pressure;Samples;Min_cycle;Max_cycle;Signal;HPM_P1;HPM_P2
2021/05/14 00:00:23;;;;;;;0.63;0.63;;;21.80;52.50;;;;;;5111127;28;20020;-42
2021/05/14 00:02:48;;;;;;;1.30;0.70;;;21.80;52.60;;;;;;5093413;28;20832;-43
2021/05/14 00:05:14;;;;;;;1.33;0.90;;;21.80;52.50;;;;;;5114822;28;20501;-41
2021/05/14 00:07:40;;;;;;;1.88;0.88;;;21.80;52.60;;;;;;5110378;28;20028;-42
2021/05/14 00:10:06;;;;;;;1.10;0.60;;;21.80;52.60;;;;;;5110715;28;20024;-43
2021/05/14 00:12:32;;;;;;;0.88;0.70;;;21.80;52.70;;;;;;5110022;28;20036;-43
2021/05/14 00:14:57;;;;;;;0.80;0.80;;;21.80;52.60;;;;;;5110850;28;20030;-41
2021/05/14 00:17:23;;;;;;;1.10;0.55;;;21.80;53.20;;;;;;5113840;28;20485;-43
2021/05/14 00:19:48;;;;;;;0.50;0.50;;;21.80;52.60;;;;;;5111254;28;20464;-43
2021/05/14 00:22:14;;;;;;;1.90;0.60;;;21.70;52.60;;;;;;5109884;28;20099;-43
2021/05/14 00:24:39;;;;;;;1.02;0.80;;;21.70;52.70;;;;;;5110529;28;20035;-40
2021/05/14 00:27:05;;;;;;;1.38;0.50;;;21.70;52.70;;;;;;5110276;28;20020;-41
2021/05/14 00:29:30;;;;;;;0.98;0.75;;;21.70;52.60;;;;;;5112646;28;20019;-42
2021/05/14 00:31:56;;;;;;;0.57;0.40;;;21.70;52.60;;;;;;5111835;28;20028;-41
2021/05/14 00:34:22;;;;;;;0.80;0.60;;;21.70;52.70;;;;;;5110114;28;20073;-40
2021/05/14 00:36:48;;;;;;;0.75;0.75;;;21.70;52.70;;;;;;5109441;28;20034;-42
2021/05/14 00:39:14;;;;;;;0.90;0.50;;;21.70;52.90;;;;;;5109643;28;20055;-41
2021/05/14 00:41:39;;;;;;;0.60;0.50;;;21.70;53.00;;;;;;5110934;28;20443;-41
2021/05/14 00:44:27;;;;;;;0.63;0.40;;;21.60;52.80;;;;;;5113985;28;20023;-42
2021/05/14 00:46:53;;;;;;;0.80;0.63;;;21.70;52.90;;;;;;5113580;28;20027;-42
2021/05/14 00:49:18;;;;;;;0.80;0.70;;;21.60;52.90;;;;;;5109510;28;20031;-42
2021/05/14 00:51:44;;;;;;;1.15;0.70;;;21.70;52.90;;;;;;5109490;28;20032;-41
2021/05/14 00:54:10;;;;;;;0.75;0.70;;;21.60;52.90;;;;;;5094424;28;20040;-42
2021/05/14 00:56:36;;;;;;;1.08;0.77;;;21.60;53.10;;;;;;5111957;28;20482;-38
2021/05/14 00:59:01;;;;;;;1.25;0.80;;;21.60;52.90;;;;;;5111421;28;20083;-40
2021/05/14 01:01:27;;;;;;;0.63;0.57;;;21.60;52.90;;;;;;5109491;28;20026;-41
2021/05/14 01:03:52;;;;;;;0.65;0.50;;;21.60;52.90;;;;;;5093472;28;20559;-42
2021/05/14 01:06:18;;;;;;;0.68;0.52;;;21.60;53.50;;;;;;5109423;28;20476;-42
2021/05/14 01:08:43;;;;;;;1.15;0.50;;;21.60;53.20;;;;;;5110559;28;20035;-42
2021/05/14 01:11:09;;;;;;;0.80;0.68;;;21.60;53.00;;;;;;5094482;28;20020;-40
2021/05/14 01:13:35;;;;;;;1.45;0.65;;;21.60;53.10;;;;;;5110943;28;20564;-42
2021/05/14 01:16:00;;;;;;;0.63;0.60;;;21.60;53.00;;;;;;5076329;28;20027;-44
2021/05/14 01:18:26;;;;;;;1.40;0.77;;;21.50;53.00;;;;;;5109147;28;20032;-43
2021/05/14 01:20:51;;;;;;;2.53;0.70;;;21.60;53.10;;;;;;5109804;28;20020;-40
2021/05/14 01:23:17;;;;;;;1.17;0.60;;;21.60;53.70;;;;;;5113191;28;20517;-43
2021/05/14 01:25:42;;;;;;;0.90;0.52;;;21.50;53.00;;;;;;5108842;28;20114;-40
2021/05/14 01:28:09;;;;;;;1.42;0.50;;;21.50;52.90;;;;;;5093656;28;20447;-40
2021/05/14 01:30:34;;;;;;;0.82;0.77;;;21.60;53.00;;;;;;5108847;28;20367;-43
2021/05/14 01:33:00;;;;;;;1.20;0.80;;;21.50;53.70;;;;;;5109900;28;20754;-40
2021/05/14 01:35:25;;;;;;;1.15;0.65;;;21.50;53.80;;;;;;5112047;28;20038;-42
2021/05/14 01:37:51;;;;;;;0.88;0.60;;;21.50;53.10;;;;;;5109906;28;20047;-42
2021/05/14 01:40:17;;;;;;;1.77;0.60;;;21.50;53.10;;;;;;5108525;28;20110;-43
2021/05/14 01:42:43;;;;;;;0.65;0.50;;;21.50;53.00;;;;;;5110542;28;20039;-42
2021/05/14 01:45:09;;;;;;;0.73;0.73;;;21.50;53.00;;;;;;5108734;28;20027;-43
2021/05/14 01:47:35;;;;;;;0.80;0.57;;;21.50;53.20;;;;;;5111163;28;20606;-43
2021/05/14 01:50:01;;;;;;;1.45;0.60;;;21.50;53.30;;;;;;5109727;28;20044;-44
2021/05/14 01:52:26;;;;;;;1.15;0.75;;;21.50;53.30;;;;;;5109416;28;20101;-45
2021/05/14 01:54:52;;;;;;;0.80;0.50;;;21.50;53.30;;;;;;5109773;28;20393;-43
2021/05/14 01:57:17;;;;;;;0.68;0.50;;;21.50;53.30;;;;;;5108507;28;20090;-43
2021/05/14 01:59:43;;;;;;;0.93;0.52;;;21.50;53.30;;;;;;5090413;28;20015;-45
2021/05/14 02:02:08;;;;;;;1.10;0.73;;;21.50;53.40;;;;;;5110262;28;20034;-44
2021/05/14 02:04:34;;;;;;;0.80;0.70;;;21.50;53.10;;;;;;5110409;28;20087;-43
2021/05/14 02:07:00;;;;;;;0.68;0.60;;;21.50;53.20;;;;;;5108293;28;20098;-40
2021/05/14 02:09:25;;;;;;;1.33;0.73;;;21.50;53.30;;;;;;5108163;28;20061;-40
2021/05/14 02:11:51;;;;;;;0.90;0.68;;;21.50;53.20;;;;;;5108564;28;20031;-41
2021/05/14 02:14:16;;;;;;;0.85;0.70;;;21.50;53.20;;;;;;5112351;28;20389;-40
2021/05/14 02:16:42;;;;;;;1.25;0.75;;;21.50;53.30;;;;;;5108115;28;20103;-41
2021/05/14 02:19:08;;;;;;;0.80;0.75;;;21.50;53.50;;;;;;5109392;28;20027;-41
2021/05/14 02:21:34;;;;;;;0.93;0.70;;;21.50;53.40;;;;;;5110153;28;20021;-42
2021/05/14 02:23:59;;;;;;;1.33;0.70;;;21.50;53.40;;;;;;5108198;28;20034;-41
2021/05/14 02:26:25;;;;;;;0.82;0.80;;;21.50;53.30;;;;;;5111269;28;20020;-36
2021/05/14 02:28:50;;;;;;;1.60;0.90;;;21.50;53.30;;;;;;5109262;28;20069;-41
2021/05/14 02:31:16;;;;;;;1.70;0.80;;;21.50;53.50;;;;;;5107806;28;20027;-38
2021/05/14 02:33:41;;;;;;;2.08;0.82;;;21.50;53.50;;;;;;5107445;28;20541;-40
2021/05/14 02:36:07;;;;;;;1.08;0.60;;;21.50;53.40;;;;;;5107997;28;20077;-40
2021/05/14 02:38:33;;;;;;;0.75;0.52;;;21.40;53.50;;;;;;5110092;28;20039;-39
2021/05/14 02:40:58;;;;;;;1.17;0.82;;;21.50;53.70;;;;;;5111566;28;20028;-42
2021/05/14 02:43:24;;;;;;;2.08;0.70;;;21.50;53.90;;;;;;5107680;28;20055;-42
2021/05/14 02:45:49;;;;;;;1.08;0.90;;;21.50;54.00;;;;;;5107800;28;20023;-42
2021/05/14 02:48:17;;;;;;;0.80;0.80;;;21.50;54.10;;;;;;5108186;28;20030;-42
2021/05/14 02:50:43;;;;;;;1.58;0.90;;;21.50;54.20;;;;;;5109530;28;20103;-40
2021/05/14 02:53:08;;;;;;;0.98;0.75;;;21.50;54.40;;;;;;5110840;28;20118;-44
2021/05/14 02:55:34;;;;;;;0.90;0.80;;;21.50;54.40;;;;;;5107483;28;20020;-40
2021/05/14 02:57:59;;;;;;;1.52;1.00;;;21.50;54.40;;;;;;5089109;28;20035;-40
2021/05/14 03:00:25;;;;;;;1.10;0.60;;;21.50;55.00;;;;;;5096895;28;20019;-43
2021/05/14 03:02:51;;;;;;;0.95;0.82;;;21.40;54.30;;;;;;5111269;28;20104;-40
2021/05/14 03:05:16;;;;;;;1.48;0.70;;;21.50;54.30;;;;;;5116198;28;20016;-40
2021/05/14 03:07:42;;;;;;;1.13;0.70;;;21.50;54.50;;;;;;5096398;28;20377;-43
2021/05/14 03:10:08;;;;;;;1.73;1.00;;;21.50;54.30;;;;;;5113058;28;20028;-41
2021/05/14 03:12:34;;;;;;;1.02;0.93;;;21.50;54.30;;;;;;5112689;28;20031;-41
2021/05/14 03:14:59;;;;;;;0.95;0.73;;;21.50;54.50;;;;;;5111347;28;20383;-41
2021/05/14 03:17:25;;;;;;;1.25;0.77;;;21.40;54.40;;;;;;5114488;28;20509;-46
2021/05/14 03:19:50;;;;;;;1.10;0.70;;;21.40;54.50;;;;;;5114287;28;20027;-40
2021/05/14 03:22:16;;;;;;;0.82;0.70;;;21.40;54.40;;;;;;5111431;28;20484;-42
2021/05/14 03:24:42;;;;;;;1.17;0.70;;;21.40;54.40;;;;;;5111624;28;20026;-41
2021/05/14 03:27:07;;;;;;;1.48;0.90;;;21.40;54.20;;;;;;5111849;28;20402;-40
2021/05/14 03:29:33;;;;;;;1.13;0.93;;;21.40;54.30;;;;;;5113840;28;20020;-40
2021/05/14 03:31:58;;;;;;;1.58;0.73;;;21.40;54.30;;;;;;5113013;28;20028;-41
2021/05/14 03:34:24;;;;;;;1.02;0.73;;;21.40;54.40;;;;;;5111399;28;20103;-41
2021/05/14 03:36:49;;;;;;;0.93;0.75;;;21.40;54.40;;;;;;5111042;28;20435;-42
2021/05/14 03:39:20;;;;;;;1.00;0.77;;;21.40;54.30;;;;;;5096024;28;20067;-40
2021/05/14 03:41:49;;;;;;;0.90;0.60;;;21.40;54.50;;;;;;5112583;28;20031;-41
2021/05/14 03:44:14;;;;;;;1.10;0.80;;;21.40;54.40;;;;;;5114976;28;20426;-42
2021/05/14 03:46:40;;;;;;;1.02;0.75;;;21.40;54.30;;;;;;5095638;28;20112;-42
2021/05/14 03:49:06;;;;;;;1.05;0.57;;;21.40;54.40;;;;;;5095595;28;20141;-41
2021/05/14 03:51:34;;;;;;;0.70;0.50;;;21.30;54.30;;;;;;5110704;28;20039;-42
2021/05/14 03:54:00;;;;;;;0.73;0.57;;;21.40;55.10;;;;;;5110804;28;20506;-42
2021/05/14 03:56:25;;;;;;;0.80;0.60;;;21.30;54.30;;;;;;5114432;28;20027;-46
2021/05/14 03:58:51;;;;;;;0.73;0.63;;;21.30;54.30;;;;;;5111652;28;20024;-40
2021/05/14 04:01:17;;;;;;;0.77;0.60;;;21.30;54.30;;;;;;5110964;28;20493;-41
2021/05/14 04:03:43;;;;;;;0.80;0.60;;;21.30;54.70;;;;;;5112805;28;20111;-42
2021/05/14 04:06:08;;;;;;;0.82;0.70;;;21.30;54.20;;;;;;5110635;28;20099;-45
2021/05/14 04:08:34;;;;;;;0.60;0.60;;;21.30;55.00;;;;;;5112923;28;20562;-43
2021/05/14 04:16:24;;;;;;;0.65;0.60;;;21.30;54.40;;;;;;5098051;28;20103;-42
2021/05/14 04:18:50;;;;;;;0.90;0.70;;;21.30;54.30;;;;;;5092548;28;20055;-42
2021/05/14 04:21:15;;;;;;;0.90;0.73;;;21.30;54.40;;;;;;5110756;28;20386;-40
2021/05/14 04:23:41;;;;;;;0.52;0.47;;;21.30;54.50;;;;;;5111786;28;20097;-40
2021/05/14 04:26:06;;;;;;;0.90;0.65;;;21.20;54.40;;;;;;5114536;28;20078;-40
2021/05/14 04:28:32;;;;;;;0.75;0.60;;;21.20;54.30;;;;;;5110354;28;20027;-40
2021/05/14 04:30:58;;;;;;;0.50;0.43;;;21.30;54.30;;;;;;5104254;28;20138;-42
2021/05/14 04:33:23;;;;;;;0.90;0.70;;;21.20;54.80;;;;;;5106114;28;20059;-42
2021/05/14 04:35:49;;;;;;;0.60;0.57;;;21.20;54.40;;;;;;5102199;28;20814;-44
2021/05/14 04:38:15;;;;;;;0.70;0.50;;;21.30;54.30;;;;;;5106381;28;20048;-43
2021/05/14 04:40:40;;;;;;;0.50;0.50;;;21.20;55.10;;;;;;5077684;28;20031;-40
2021/05/14 04:43:06;;;;;;;0.60;0.50;;;21.30;54.40;;;;;;5089258;28;20035;-40
2021/05/14 04:45:32;;;;;;;0.73;0.60;;;21.20;54.40;;;;;;5106745;28;20070;-42
2021/05/14 04:47:58;;;;;;;0.70;0.60;;;21.20;54.50;;;;;;5105218;28;20044;-42
2021/05/14 04:50:24;;;;;;;0.65;0.55;;;21.20;54.40;;;;;;5104907;28;20028;-44
2021/05/14 04:52:54;;;;;;;1.42;0.50;;;21.20;54.50;;;;;;5105310;28;20047;-40
2021/05/14 04:55:19;;;;;;;0.52;0.40;;;21.20;54.50;;;;;;5072701;28;20016;-42
2021/05/14 04:57:45;;;;;;;0.50;0.50;;;21.20;54.50;;;;;;5107031;28;20096;-42
2021/05/14 05:00:11;;;;;;;0.55;0.50;;;21.20;54.50;;;;;;5102502;28;20032;-45
2021/05/14 05:02:37;;;;;;;0.45;0.45;;;21.20;54.50;;;;;;5101976;28;20072;-41
2021/05/14 05:05:03;;;;;;;1.05;0.50;;;21.20;55.30;;;;;;5107435;28;20482;-42
2021/05/14 05:07:31;;;;;;;0.50;0.50;;;21.20;54.50;;;;;;5106716;28;20130;-42
2021/05/14 05:09:56;;;;;;;0.40;0.40;;;21.20;54.50;;;;;;5106235;28;20114;-39
2021/05/14 05:12:22;;;;;;;0.55;0.43;;;21.20;54.50;;;;;;5104097;28;20122;-42
2021/05/14 05:14:47;;;;;;;0.52;0.47;;;21.20;54.50;;;;;;5084878;28;20024;-42
2021/05/14 05:17:13;;;;;;;0.38;0.35;;;21.20;54.50;;;;;;5105226;28;20035;-43
2021/05/14 05:19:39;;;;;;;0.73;0.50;;;21.20;54.50;;;;;;5102031;28;20035;-44
2021/05/14 05:22:04;;;;;;;0.45;0.45;;;21.20;54.60;;;;;;5102477;28;20030;-43
2021/05/14 05:24:30;;;;;;;0.43;0.43;;;21.20;54.50;;;;;;5110251;28;20509;-43
2021/05/14 05:26:55;;;;;;;0.43;0.40;;;21.10;54.60;;;;;;5101839;28;20417;-41
2021/05/14 05:29:21;;;;;;;0.60;0.50;;;21.20;54.60;;;;;;5103324;28;20108;-43
2021/05/14 05:31:47;;;;;;;0.47;0.47;;;21.20;54.70;;;;;;5106941;28;20024;-40
2021/05/14 05:34:12;;;;;;;0.60;0.52;;;21.20;54.60;;;;;;5108316;28;20039;-42
2021/05/14 05:36:38;;;;;;;0.50;0.40;;;21.20;54.70;;;;;;5103575;28;20022;-43
2021/05/14 05:39:04;;;;;;;0.43;0.40;;;21.20;55.30;;;;;;5101333;28;20136;-42
2021/05/14 05:41:29;;;;;;;0.40;0.40;;;21.20;54.70;;;;;;5106478;28;20019;-40
2021/05/14 05:43:55;;;;;;;0.40;0.38;;;21.20;54.70;;;;;;5107705;28;20114;-42
2021/05/14 05:46:21;;;;;;;0.38;0.32;;;21.10;54.60;;;;;;5105577;28;20036;-42
2021/05/14 05:48:49;;;;;;;0.50;0.47;;;21.10;54.60;;;;;;5104849;28;20035;-42
2021/05/14 05:51:14;;;;;;;0.75;0.40;;;21.10;54.60;;;;;;5104341;28;20027;-44
2021/05/14 05:53:40;;;;;;;0.50;0.50;;;21.10;54.60;;;;;;5110030;28;20079;-42
2021/05/14 05:56:05;;;;;;;0.60;0.40;;;21.10;54.70;;;;;;5106523;28;20027;-44
2021/05/14 05:58:32;;;;;;;0.70;0.50;;;21.10;54.70;;;;;;5108359;28;20088;-42
2021/05/14 06:00:58;;;;;;;0.82;0.65;;;21.10;54.60;;;;;;5108206;28;20028;-42
2021/05/14 06:03:24;;;;;;;0.40;0.40;;;21.10;54.70;;;;;;5107783;28;20032;-43
2021/05/14 06:05:50;;;;;;;0.88;0.50;;;21.10;54.80;;;;;;5090198;28;20034;-40
2021/05/14 06:08:15;;;;;;;0.50;0.30;;;21.10;54.80;;;;;;5112125;28;20020;-43
2021/05/14 06:10:41;;;;;;;0.57;0.50;;;21.10;54.60;;;;;;5107733;28;20096;-43
2021/05/14 06:13:07;;;;;;;0.30;0.30;;;21.10;54.70;;;;;;5108218;28;20113;-40
2021/05/14 06:15:33;;;;;;;0.50;0.43;;;21.10;54.70;;;;;;5108236;28;20489;-39
2021/05/14 06:17:58;;;;;;;0.40;0.40;;;21.10;54.70;;;;;;5090960;28;20032;-42
2021/05/14 06:20:26;;;;;;;0.50;0.43;;;21.10;54.80;;;;;;5111599;28;20024;-45
2021/05/14 06:22:51;;;;;;;0.47;0.40;;;21.10;54.70;;;;;;5109778;28;20028;-44
2021/05/14 06:25:18;;;;;;;0.50;0.47;;;21.10;54.80;;;;;;5107771;28;20027;-41
2021/05/14 06:27:44;;;;;;;0.35;0.30;;;21.10;54.80;;;;;;5108153;28;20027;-39
2021/05/14 06:30:10;;;;;;;0.30;0.30;;;21.10;54.80;;;;;;5108003;28;20035;-43
2021/05/14 06:32:35;;;;;;;0.47;0.47;;;21.10;54.70;;;;;;5110423;28;20034;-38
2021/05/14 06:35:01;;;;;;;0.93;0.35;;;21.10;54.80;;;;;;5109911;28;20464;-41
2021/05/14 06:37:29;;;;;;;0.30;0.30;;;21.10;54.80;;;;;;5100749;28;20055;-43
2021/05/14 06:39:54;;;;;;;0.60;0.40;;;21.10;54.80;;;;;;5098948;28;20137;-46
2021/05/14 06:42:20;;;;;;;0.43;0.30;;;21.30;54.80;;;;;;5080987;28;20035;-47
2021/05/14 06:44:45;;;;;;;0.40;0.40;;;21.50;54.30;;;;;;5084855;28;20024;-46
2021/05/14 06:47:11;;;;;;;0.38;0.30;;;21.60;54.20;;;;;;5105043;28;20031;-44
2021/05/14 06:49:37;;;;;;;1.75;0.30;;;21.70;54.70;;;;;;5099051;28;20038;-44
2021/05/14 06:52:02;;;;;;;0.32;0.30;;;21.80;53.60;;;;;;5095475;28;20024;-44
2021/05/14 06:54:28;;;;;;;0.50;0.50;;;21.60;53.70;;;;;;5081949;28;20020;-42
2021/05/14 06:56:54;;;;;;;0.30;0.20;;;21.70;53.90;;;;;;5102564;28;20027;-45
2021/05/14 06:59:20;;;;;;;0.55;0.40;;;21.80;53.80;;;;;;5102197;28;20039;-44
2021/05/14 07:01:45;;;;;;;0.40;0.40;;;21.90;53.30;;;;;;5082196;28;20524;-45
2021/05/14 07:04:11;;;;;;;0.38;0.30;;;22.00;53.10;;;;;;5097347;28;20127;-44
2021/05/14 07:06:37;;;;;;;0.50;0.40;;;21.80;53.30;;;;;;5099856;28;20131;-43
2021/05/14 07:09:03;;;;;;;0.75;0.45;;;21.90;53.30;;;;;;5099039;28;20106;-44
2021/05/14 07:11:29;;;;;;;0.38;0.38;;;21.90;53.20;;;;;;5093480;28;20070;-44
2021/05/14 07:13:54;;;;;;;0.40;0.30;;;21.90;53.70;;;;;;5102005;28;20036;-44
2021/05/14 07:16:20;;;;;;;0.40;0.20;;;21.90;53.10;;;;;;5101088;28;20032;-42
2021/05/14 07:18:45;;;;;;;0.40;0.40;;;21.70;53.80;;;;;;5080421;28;23046;-44
2021/05/14 07:21:11;;;;;;;0.28;0.28;;;21.70;53.60;;;;;;5101353;28;20425;-44
2021/05/14 07:23:36;;;;;;;0.60;0.52;;;21.70;53.70;;;;;;5102403;28;20101;-44
2021/05/14 07:26:02;;;;;;;0.60;0.40;;;21.50;54.10;;;;;;5103006;28;20035;-46
2021/05/14 07:28:27;;;;;;;0.40;0.40;;;21.40;54.30;;;;;;5099762;28;20065;-44
2021/05/14 07:30:53;;;;;;;0.32;0.30;;;21.50;54.40;;;;;;5098472;28;20550;-49
2021/05/14 07:33:19;;;;;;;0.35;0.32;;;21.50;54.20;;;;;;5098734;28;20043;-46
2021/05/14 07:35:44;;;;;;;0.50;0.32;;;21.40;54.40;;;;;;5102667;28;20039;-46
2021/05/14 07:38:10;;;;;;;0.57;0.30;;;21.30;54.60;;;;;;5099697;28;20545;-51
2021/05/14 07:40:37;;;;;;;0.30;0.30;;;21.30;54.70;;;;;;5099428;28;20035;-45
2021/05/14 07:43:02;;;;;;;0.52;0.40;;;21.30;54.80;;;;;;5081813;28;20038;-46
2021/05/14 07:45:28;;;;;;;0.50;0.30;;;21.30;54.90;;;;;;5102143;28;20028;-39
2021/05/14 07:47:54;;;;;;;3.17;0.47;;;21.30;55.30;;;;;;5101575;28;20038;-45
2021/05/14 07:50:19;;;;;;;0.40;0.30;;;21.20;55.00;;;;;;5098050;28;20531;-47
2021/05/14 07:52:45;;;;;;;0.32;0.30;;;21.20;55.50;;;;;;5103318;28;20047;-41
2021/05/14 07:55:10;;;;;;;0.40;0.40;;;21.20;55.00;;;;;;5102851;28;20043;-43
2021/05/14 07:57:36;;;;;;;0.40;0.40;;;21.20;55.00;;;;;;5100578;28;20047;-41
2021/05/14 08:00:03;;;;;;;0.30;0.20;;;21.20;55.20;;;;;;5099974;28;20035;-43
2021/05/14 08:02:29;;;;;;;0.60;0.50;;;21.30;55.20;;;;;;5102389;28;20024;-45
2021/05/14 08:04:54;;;;;;;0.32;0.30;;;21.30;55.60;;;;;;5101359;28;20065;-44
2021/05/14 08:07:20;;;;;;;0.30;0.30;;;21.20;55.00;;;;;;5099191;28;20116;-43
2021/05/14 08:09:46;;;;;;;0.40;0.35;;;21.20;55.00;;;;;;5100938;28;20032;-45
2021/05/14 08:12:12;;;;;;;0.40;0.40;;;21.30;55.10;;;;;;5096715;28;20030;-43
2021/05/14 08:14:37;;;;;;;0.30;0.20;;;21.20;55.10;;;;;;5097341;28;20040;-42
2021/05/14 08:17:03;;;;;;;0.30;0.30;;;21.30;55.10;;;;;;5101872;28;20047;-44
2021/05/14 08:19:29;;;;;;;0.75;0.30;;;21.30;55.20;;;;;;5081717;28;20066;-43
2021/05/14 08:21:54;;;;;;;0.30;0.28;;;21.30;55.30;;;;;;5098308;28;20020;-45
2021/05/14 08:24:20;;;;;;;0.50;0.50;;;21.30;55.30;;;;;;5102207;28;20032;-42
2021/05/14 08:26:46;;;;;;;0.55;0.40;;;21.30;55.20;;;;;;5081535;28;20035;-42
2021/05/14 08:29:11;;;;;;;0.40;0.32;;;21.30;55.40;;;;;;5105133;28;20058;-40
2021/05/14 08:31:40;;;;;;;0.40;0.30;;;21.30;56.10;;;;;;5099711;28;20764;-43
2021/05/14 08:34:09;;;;;;;1.77;0.30;;;21.20;55.60;;;;;;5099229;28;20119;-43
2021/05/14 08:36:34;;;;;;;0.68;0.47;;;21.20;55.70;;;;;;5099906;28;20053;-43
2021/05/14 08:39:00;;;;;;;0.30;0.30;;;21.30;55.60;;;;;;5094859;28;20048;-41
2021/05/14 08:41:26;;;;;;;0.50;0.40;;;21.30;55.60;;;;;;5098618;28;20375;-43
2021/05/14 08:43:52;;;;;;;0.50;0.22;;;21.20;55.60;;;;;;5099988;28;20032;-48
2021/05/14 08:46:18;;;;;;;0.20;0.20;;;21.30;55.70;;;;;;5097682;28;20422;-41
2021/05/14 08:48:44;;;;;;;0.30;0.30;;;21.30;55.60;;;;;;5099628;28;20035;-43
2021/05/14 08:51:11;;;;;;;0.30;0.30;;;21.40;55.50;;;;;;5100486;28;20016;-43
2021/05/14 08:53:37;;;;;;;0.30;0.30;;;21.40;55.60;;;;;;5082155;28;20088;-41
2021/05/14 08:56:03;;;;;;;0.52;0.40;;;21.40;55.80;;;;;;5105232;28;20123;-43
2021/05/14 08:58:28;;;;;;;0.40;0.30;;;21.50;55.50;;;;;;5100580;28;20564;-43
2021/05/14 09:00:54;;;;;;;0.30;0.30;;;21.40;55.50;;;;;;5100847;28;20028;-43
2021/05/14 09:03:20;;;;;;;0.43;0.22;;;21.40;55.60;;;;;;5099938;28;20039;-44
2021/05/14 09:05:47;;;;;;;0.30;0.30;;;21.40;55.80;;;;;;5095459;28;20092;-43
2021/05/14 09:08:12;;;;;;;0.50;0.30;;;21.40;55.80;;;;;;5104180;28;20039;-42
2021/05/14 09:10:38;;;;;;;0.30;0.30;;;21.40;55.70;;;;;;5096343;28;20035;-43
2021/05/14 09:13:11;;;;;;;0.40;0.40;;;21.40;55.80;;;;;;5102879;28;20164;-43
2021/05/14 09:15:37;;;;;;;0.50;0.30;;;21.30;55.80;;;;;;5098683;28;20039;-43
2021/05/14 09:18:07;;;;;;;0.38;0.30;;;21.30;55.90;;;;;;5097109;28;20043;-43
2021/05/14 09:20:37;;;;;;;0.82;0.40;;;21.30;56.00;;;;;;5096406;28;20114;-44
2021/05/14 09:23:16;;;;;;;0.47;0.40;;;21.30;55.70;;;;;;5101885;28;20110;-44
2021/05/14 09:26:11;;;;;;;0.50;0.40;;;21.40;55.80;;;;;;5082708;28;20028;-42
2021/05/14 09:28:53;;;;;;;1.08;0.60;;;21.40;56.30;;;;;;5094703;28;20035;-41
2021/05/14 09:31:22;;;;;;;0.30;0.30;;;21.50;56.50;;;;;;5080095;28;20039;-42
2021/05/14 09:34:00;;;;;;;0.50;0.50;;;21.50;55.70;;;;;;5100134;28;20042;-45
2021/05/14 09:36:33;;;;;;;0.77;0.60;;;21.50;56.30;;;;;;5100400;28;20019;-43
2021/05/14 09:39:00;;;;;;;1.92;1.30;;;21.50;56.50;;;;;;5101811;28;20047;-41
2021/05/14 09:41:28;;;;;;;1.23;1.13;;;21.50;57.10;;;;;;5096837;28;20023;-44
2021/05/14 09:44:01;;;;;;;1.15;1.13;;;21.60;57.90;;;;;;5101015;28;20080;-42
2021/05/14 09:46:37;;;;;;;1.52;1.08;;;21.60;57.40;;;;;;5097116;28;20035;-44
2021/05/14 09:49:05;;;;;;;1.00;1.00;;;21.80;58.70;;;;;;5097080;28;20446;-42
2021/05/14 09:51:31;;;;;;;1.67;1.00;;;21.80;57.50;;;;;;5075556;28;20035;-42
2021/05/14 09:53:56;;;;;;;2.25;1.00;;;21.80;59.30;;;;;;5090423;28;20032;-39
2021/05/14 09:56:33;;;;;;;2.30;1.15;;;21.80;59.00;;;;;;5100735;28;20042;-40
2021/05/14 09:59:00;;;;;;;2.08;1.10;;;21.70;60.10;;;;;;5109751;28;20088;-40
2021/05/14 10:01:26;;;;;;;2.65;1.10;;;21.70;61.40;;;;;;5108810;28;20137;-39
2021/05/14 10:03:52;;;;;;;2.35;1.10;;;21.70;61.00;;;;;;5108509;28;20031;-38
2021/05/14 10:06:19;;;;;;;0.85;0.57;;;21.70;60.40;;;;;;5108235;28;20160;-39
2021/05/14 10:08:49;;;;;;;1.10;1.00;;;21.70;61.90;;;;;;5081678;28;20541;-40
2021/05/14 10:11:15;;;;;;;1.13;1.00;;;21.60;60.60;;;;;;5109979;28;20031;-40
2021/05/14 10:13:41;;;;;;;4.53;1.13;;;21.50;61.10;;;;;;5086612;28;20410;-40
2021/05/14 10:16:06;;;;;;;37.70;1.50;;;21.50;63.30;;;;;;5081384;28;20026;-41
2021/05/14 10:18:36;;;;;;;2.20;0.95;;;21.50;60.20;;;;;;5108148;28;20077;-41
2021/05/14 10:21:09;;;;;;;1.52;0.80;;;21.60;58.90;;;;;;5081001;28;20039;-41
2021/05/14 10:23:34;;;;;;;0.95;0.88;;;21.80;58.60;;;;;;5089833;28;20524;-41
2021/05/14 10:26:10;;;;;;;1.40;0.93;;;21.70;59.00;;;;;;5090446;28;20016;-41
2021/05/14 10:28:46;;;;;;;1.88;0.90;;;21.60;60.00;;;;;;5095040;28;20165;-43
2021/05/14 10:31:15;;;;;;;2.00;0.82;;;21.60;59.40;;;;;;5094846;28;20017;-46
2021/05/14 10:33:44;;;;;;;1.98;0.80;;;21.50;59.00;;;;;;5094331;28;20572;-43
2021/05/14 10:36:21;;;;;;;1.23;0.73;;;21.60;58.60;;;;;;5093724;28;20506;-45
2021/05/14 10:39:15;;;;;;;2.15;0.68;;;21.70;58.00;;;;;;5074379;28;20054;-45
2021/05/14 10:41:54;;;;;;;4.25;1.20;;;21.80;57.80;;;;;;4738151;28;10000561;-45
2021/05/14 10:44:41;;;;;;;1.65;0.70;;;21.80;58.20;;;;;;5093673;28;20085;-47
2021/05/14 10:47:25;;;;;;;2.65;0.80;;;21.90;57.30;;;;;;5091778;28;20402;-48
2021/05/14 10:50:00;;;;;;;2.55;0.98;;;22.10;57.80;;;;;;5087355;28;20027;-44
2021/05/14 10:52:27;;;;;;;2.28;0.75;;;22.20;57.00;;;;;;5094869;28;20581;-52
2021/05/14 10:54:53;;;;;;;1.17;0.70;;;22.30;56.00;;;;;;5094776;28;20024;-46
2021/05/14 10:57:41;;;;;;;1.70;0.80;;;22.30;55.80;;;;;;5070319;28;20171;-47
2021/05/14 11:00:25;;;;;;;1.63;0.80;;;22.40;55.70;;;;;;5092221;28;20149;-44
2021/05/14 11:03:09;;;;;;;0.82;0.70;;;22.50;56.10;;;;;;5075615;28;20088;-43
2021/05/14 11:05:35;;;;;;;1.90;1.05;;;22.50;55.90;;;;;;5093800;28;20038;-48
2021/05/14 11:08:01;;;;;;;5.57;0.98;;;22.50;56.80;;;;;;5071610;28;20724;-43
2021/05/14 11:10:27;;;;;;;1.23;0.63;;;22.60;57.30;;;;;;5077952;28;20023;-45
2021/05/14 11:12:53;;;;;;;1.88;0.60;;;22.60;57.40;;;;;;5101346;28;20048;-43
2021/05/14 11:15:29;;;;;;;1.70;0.80;;;22.50;56.00;;;;;;5080986;28;20460;-42
2021/05/14 11:18:07;;;;;;;0.98;0.70;;;22.50;56.10;;;;;;5091956;28;20390;-45
2021/05/14 11:20:42;;;;;;;1.60;0.80;;;22.60;56.30;;;;;;5094412;28;20028;-44
2021/05/14 11:23:38;;;;;;;1.83;0.75;;;22.60;56.00;;;;;;5092436;28;20517;-44
2021/05/14 11:26:04;;;;;;;2.75;0.70;;;22.60;56.10;;;;;;5100541;28;20027;-44
2021/05/14 11:28:56;;;;;;;4.53;0.90;;;22.60;56.50;;;;;;5097208;28;20027;-45
2021/05/14 11:31:23;;;;;;;2.45;0.90;;;22.60;57.80;;;;;;5088958;28;20047;-46
2021/05/14 11:33:54;;;;;;;2.95;1.08;;;22.60;57.70;;;;;;5096821;28;20535;-48
2021/05/14 11:36:20;;;;;;;2.28;0.70;;;22.70;57.40;;;;;;5091175;28;20024;-48
2021/05/14 11:38:49;;;;;;;7.72;0.80;;;22.70;57.90;;;;;;5089115;28;20058;-49
2021/05/14 11:41:35;;;;;;;4.32;0.80;;;22.70;57.60;;;;;;5092171;28;20542;-46
2021/05/14 11:44:03;;;;;;;3.55;1.10;;;22.70;57.70;;;;;;5101071;28;20640;-45
2021/05/14 11:46:33;;;;;;;2.45;1.05;;;22.70;57.60;;;;;;5094301;28;20059;-45
2021/05/14 11:49:08;;;;;;;2.40;1.25;;;22.70;57.40;;;;;;5076145;28;20027;-45
2021/05/14 11:51:34;;;;;;;7.05;1.10;;;22.80;57.60;;;;;;5096388;28;20110;-45
2021/05/14 11:54:14;;;;;;;7.53;1.13;;;22.70;58.00;;;;;;5094844;28;20043;-45
2021/05/14 11:56:40;;;;;;;4.45;1.48;;;22.70;58.10;;;;;;5091081;28;20031;-49
2021/05/14 11:59:18;;;;;;;2.35;1.00;;;22.80;57.80;;;;;;5092704;28;20055;-43
2021/05/14 12:01:44;;;;;;;4.25;0.88;;;22.70;58.20;;;;;;5078465;28;20176;-45
2021/05/14 12:04:10;;;;;;;5.53;1.55;;;22.70;58.10;;;;;;5097782;28;20095;-43
2021/05/14 12:06:48;;;;;;;4.97;1.05;;;22.80;58.00;;;;;;5080504;28;20073;-46
2021/05/14 12:09:14;;;;;;;3.15;0.90;;;22.80;56.70;;;;;;5103208;28;20032;-44
2021/05/14 12:11:40;;;;;;;7.20;1.20;;;22.80;57.70;;;;;;5097042;28;20173;-46
2021/05/14 12:14:07;;;;;;;5.65;1.30;;;22.80;57.80;;;;;;5096961;28;20035;-45
2021/05/14 12:16:35;;;;;;;4.85;1.05;;;22.80;57.30;;;;;;5103642;28;20027;-43
2021/05/14 12:19:03;;;;;;;6.07;0.90;;;22.70;57.70;;;;;;5099044;28;20150;-44
2021/05/14 12:21:31;;;;;;;2.33;0.93;;;22.70;57.80;;;;;;5095363;28;20031;-44
2021/05/14 12:23:57;;;;;;;2.95;1.00;;;22.60;58.20;;;;;;5098336;28;20016;-46
2021/05/14 12:26:23;;;;;;;3.85;0.93;;;22.40;58.50;;;;;;5099775;28;20032;-44
2021/05/14 12:28:49;;;;;;;3.10;1.08;;;22.50;57.70;;;;;;5105147;28;20033;-44
2021/05/14 12:31:16;;;;;;;2.22;1.10;;;22.60;57.60;;;;;;5084211;28;20023;-47
2021/05/14 12:33:47;;;;;;;4.03;1.25;;;22.70;58.00;;;;;;5096684;28;20251;-44
2021/05/14 12:36:13;;;;;;;3.90;1.20;;;22.60;58.00;;;;;;5092706;28;20024;-41
2021/05/14 12:38:38;;;;;;;3.78;1.10;;;22.70;57.90;;;;;;5095725;28;20075;-44
2021/05/14 12:41:17;;;;;;;4.22;1.17;;;22.50;58.40;;;;;;5093769;28;20590;-44
2021/05/14 12:43:43;;;;;;;4.75;1.10;;;22.40;58.20;;;;;;5083719;28;20096;-43
2021/05/14 12:46:08;;;;;;;4.28;1.13;;;22.30;58.40;;;;;;5080426;28;20054;-44
2021/05/14 12:48:34;;;;;;;3.75;1.27;;;22.30;58.10;;;;;;5082334;28;20032;-44
2021/05/14 12:50:59;;;;;;;2.00;0.90;;;22.20;58.20;;;;;;5075532;28;20135;-44